Time;durP1;ratioP1;P1;durP2;ratioP2;P2;SDS_P1;SDS_P2;PMS_P1;PMS_P2;Temp;Humidity;BMP_temperature;BMP_pressure;BME280_temperature;BME280_humidity;BME280_pressure;Samples;Min_cycle;Max_cycle;Signal;HPM_P1;HPM_P2
2022/05/28 00:01:03;;;;;;;1.00;0.50;;;;;;;14.34;63.54;98614.78;4485402;31;20487;-72
2022/05/28 00:03:31;;;;;;;0.75;0.57;;;;;;;14.26;63.72;98615.63;4485384;32;20099;-72
2022/05/28 00:05:58;;;;;;;0.60;0.50;;;;;;;14.20;63.82;98616.25;4485311;31;20405;-72
2022/05/28 00:08:26;;;;;;;0.40;0.40;;;;;;;14.24;63.96;98620.19;4485407;31;20160;-72
2022/05/28 00:10:56;;;;;;;0.30;0.30;;;;;;;14.15;64.06;98616.72;4485303;31;20104;-72
2022/05/28 00:13:24;;;;;;;0.73;0.52;;;;;;;14.15;64.13;98615.91;4484192;32;20099;-72
2022/05/28 00:15:52;;;;;;;0.55;0.50;;;;;;;14.05;63.98;98615.25;4485240;31;20449;-72
2022/05/28 00:18:19;;;;;;;3.97;0.60;;;;;;;14.02;63.82;98616.41;4485440;31;20088;-72
2022/05/28 00:20:46;;;;;;;1.23;0.70;;;;;;;14.04;63.83;98618.88;4485352;31;20201;-72
2022/05/28 00:23:14;;;;;;;1.30;0.50;;;;;;;14.02;63.45;98606.69;4485776;31;20614;-72
2022/05/28 00:25:41;;;;;;;0.68;0.50;;;;;;;13.96;63.28;98598.59;4485248;31;20112;-72
2022/05/28 00:28:08;;;;;;;0.60;0.60;;;;;;;13.92;63.93;98599.94;4485325;31;20114;-72
2022/05/28 00:30:36;;;;;;;0.57;0.47;;;;;;;13.92;63.89;98595.50;4485140;32;20116;-72
2022/05/28 00:33:03;;;;;;;0.75;0.40;;;;;;;13.96;62.74;98617.88;4485179;32;20159;-72
2022/05/28 00:35:30;;;;;;;1.08;0.73;;;;;;;13.85;62.48;98626.06;4485207;31;20092;-72
2022/05/28 00:37:57;;;;;;;0.60;0.50;;;;;;;13.85;62.52;98636.63;4485244;31;20128;-72
2022/05/28 00:40:26;;;;;;;0.62;0.50;;;;;;;13.87;62.28;98644.34;4485420;32;20157;-72
2022/05/28 00:42:58;;;;;;;0.90;0.50;;;;;;;13.83;62.29;98655.22;4484962;31;20112;-72
2022/05/28 00:45:26;;;;;;;0.50;0.50;;;;;;;13.84;61.95;98648.16;4485158;31;20499;-73
2022/05/28 00:47:56;;;;;;;0.80;0.77;;;;;;;13.84;62.47;98650.78;4485014;31;20084;-72
2022/05/28 00:50:23;;;;;;;4.57;0.68;;;;;;;13.82;62.30;98655.38;4484022;32;20126;-72
2022/05/28 00:52:52;;;;;;;1.25;0.80;;;;;;;13.79;62.89;98651.28;4484808;32;20117;-72
2022/05/28 00:55:19;;;;;;;0.73;0.70;;;;;;;13.70;63.21;98639.06;4484921;31;20092;-72
2022/05/28 00:57:47;;;;;;;1.05;0.60;;;;;;;13.67;63.65;98634.09;4484905;31;20256;-72
2022/05/28 01:00:20;;;;;;;1.02;0.60;;;;;;;13.65;64.17;98621.09;4483441;32;20172;-72
2022/05/28 01:03:08;;;;;;;1.25;0.80;;;;;;;13.64;64.15;98622.09;4484728;31;20080;-72
2022/05/28 01:05:55;;;;;;;1.05;0.70;;;;;;;13.63;64.19;98588.84;4484710;31;20092;-72
2022/05/28 01:08:40;;;;;;;1.55;0.98;;;;;;;13.59;64.67;98600.69;4484784;31;20119;-72
2022/05/28 01:11:07;;;;;;;1.58;0.85;;;;;;;13.56;65.04;98601.00;4483905;32;20092;-72
2022/05/28 01:13:49;;;;;;;1.00;0.90;;;;;;;13.52;65.21;98594.44;4484765;31;20115;-72
2022/05/28 01:16:35;;;;;;;1.37;0.80;;;;;;;13.47;65.68;98581.75;4484909;32;20766;-72
2022/05/28 01:19:42;;;;;;;0.95;0.70;;;;;;;13.46;66.05;98579.28;4484762;31;20145;-72
2022/05/28 01:22:18;;;;;;;;;;;;;;;13.43;66.54;98582.22;4484925;31;20577;-72
2022/05/28 01:25:07;;;;;;;1.12;0.80;;;;;;;13.40;66.92;98574.63;4484703;31;19976;-72
2022/05/28 01:27:39;;;;;;;0.88;0.60;;;;;;;13.38;67.26;98572.16;4484629;31;20085;-72
2022/05/28 01:30:08;;;;;;;0.90;0.70;;;;;;;13.37;67.53;98565.28;4483485;32;20474;-72
2022/05/28 01:32:36;;;;;;;0.98;0.70;;;;;;;13.39;67.48;98570.38;4484282;31;20194;-72
2022/05/28 01:35:07;;;;;;;1.48;0.88;;;;;;;13.38;67.52;98576.63;4483168;32;20084;-72
2022/05/28 01:37:35;;;;;;;0.80;0.75;;;;;;;13.35;67.63;98576.94;4483143;32;20116;-72
2022/05/28 01:40:05;;;;;;;1.65;0.90;;;;;;;13.35;67.91;98572.50;4483235;32;20138;-72
2022/05/28 01:42:34;;;;;;;2.95;1.45;;;;;;;13.34;68.15;98564.75;4483139;32;20488;-72
2022/05/28 01:45:06;;;;;;;1.10;0.90;;;;;;;13.31;68.32;98563.25;4483153;32;20096;-72
2022/05/28 01:47:34;;;;;;;1.02;0.73;;;;;;;13.35;68.08;98580.38;4483132;32;20107;-72
2022/05/28 01:50:06;;;;;;;2.58;0.80;;;;;;;13.35;68.24;98583.00;4484274;32;20419;-72
2022/05/28 01:52:33;;;;;;;1.20;0.70;;;;;;;13.28;68.80;98592.50;4483169;32;20096;-72
2022/05/28 01:55:02;;;;;;;1.67;0.75;;;;;;;13.26;68.78;98579.53;4482787;32;20092;-72
2022/05/28 01:57:29;;;;;;;0.93;0.60;;;;;;;13.28;68.86;98582.00;4484178;31;20092;-72
2022/05/28 01:59:56;;;;;;;1.25;0.80;;;;;;;13.26;69.11;98578.69;4482817;32;20450;-72
2022/05/28 02:02:23;;;;;;;1.87;0.80;;;;;;;13.19;69.53;98578.50;4483977;31;20429;-72
2022/05/28 02:04:51;;;;;;;1.00;0.80;;;;;;;13.18;69.76;98587.38;4484141;31;20084;-72
2022/05/28 02:07:18;;;;;;;1.67;0.93;;;;;;;13.19;70.15;98594.28;4483843;31;20118;-72
2022/05/28 02:09:52;;;;;;;0.77;0.70;;;;;;;13.12;70.89;98595.88;4483916;31;20084;-72
2022/05/28 02:12:36;;;;;;;1.23;1.00;;;;;;;13.07;71.17;98592.91;4482625;32;20083;-72
2022/05/28 02:15:22;;;;;;;1.10;0.80;;;;;;;13.06;71.60;98599.97;4482924;32;20709;-72
2022/05/28 02:18:07;;;;;;;1.10;0.75;;;;;;;13.06;72.11;98607.03;4483929;31;20132;-72
2022/05/28 02:20:45;;;;;;;1.12;0.85;;;;;;;12.98;72.82;98594.69;4483811;31;20119;-72
2022/05/28 02:23:31;;;;;;;1.20;0.90;;;;;;;13.02;72.82;98587.28;4485798;31;20096;-72
2022/05/28 02:26:12;;;;;;;2.25;0.80;;;;;;;13.01;72.90;98585.66;4484857;32;20092;-72
2022/05/28 02:28:41;;;;;;;3.80;0.93;;;;;;;12.98;73.49;98596.50;4486240;31;20096;-72
2022/05/28 02:31:17;;;;;;;1.58;0.80;;;;;;;12.94;73.54;98601.22;4484533;32;20134;-72
2022/05/28 02:33:45;;;;;;;2.10;0.90;;;;;;;12.93;73.88;98605.66;4484671;32;20127;-72
2022/05/28 02:36:14;;;;;;;1.60;0.75;;;;;;;12.87;74.29;98605.44;4485947;31;20122;-72
2022/05/28 02:38:43;;;;;;;2.85;1.02;;;;;;;12.86;74.48;98604.63;4486095;31;20088;-72
2022/05/28 02:41:10;;;;;;;1.00;0.70;;;;;;;12.84;74.47;98614.50;4486133;31;20123;-72
2022/05/28 02:43:37;;;;;;;1.65;0.98;;;;;;;12.89;74.17;98604.31;4486066;31;20158;-72
2022/05/28 02:46:06;;;;;;;1.15;0.90;;;;;;;12.88;74.20;98591.34;4486111;32;20123;-72
2022/05/28 02:48:34;;;;;;;2.17;0.90;;;;;;;12.87;74.25;98606.28;4486070;32;20144;-72
2022/05/28 02:51:06;;;;;;;3.85;1.37;;;;;;;12.89;73.91;98600.88;4486007;31;20087;-72
2022/05/28 02:53:34;;;;;;;2.20;1.20;;;;;;;12.96;73.74;98597.47;4486041;31;20116;-72
2022/05/28 02:56:01;;;;;;;2.25;1.00;;;;;;;12.91;73.75;98591.87;4486084;31;20096;-72
2022/05/28 02:58:29;;;;;;;1.42;1.02;;;;;;;12.89;73.95;98585.09;4485788;31;20096;-72
2022/05/28 03:00:58;;;;;;;3.03;1.10;;;;;;;12.96;73.78;98591.37;4485594;31;20108;-72
2022/05/28 03:03:25;;;;;;;3.55;0.90;;;;;;;12.90;74.04;98589.34;4485726;31;20157;-72
2022/05/28 03:05:53;;;;;;;1.85;1.37;;;;;;;12.87;74.29;98585.25;4485735;31;20449;-72
2022/05/28 03:08:20;;;;;;;1.40;0.93;;;;;;;12.88;74.27;98589.50;4485651;31;20095;-72
2022/05/28 03:10:47;;;;;;;1.48;1.20;;;;;;;12.85;74.45;98575.87;4485709;32;20484;-72
2022/05/28 03:13:14;;;;;;;2.83;0.70;;;;;;;12.82;74.49;98579.62;4485592;32;20088;-72
2022/05/28 03:15:41;;;;;;;1.80;1.23;;;;;;;12.84;74.45;98575.06;4486016;32;20509;-72
2022/05/28 03:18:08;;;;;;;2.03;1.20;;;;;;;12.87;74.70;98589.66;4485783;32;20088;-72
2022/05/28 03:20:35;;;;;;;1.30;0.90;;;;;;;12.80;74.91;98592.13;4485643;32;20515;-72
2022/05/28 03:23:03;;;;;;;1.30;1.00;;;;;;;12.75;75.25;98583.87;4485651;32;20132;-72
2022/05/28 03:25:30;;;;;;;6.30;1.00;;;;;;;12.72;75.23;98579.75;4485419;31;20088;-72
2022/05/28 03:27:57;;;;;;;1.37;1.10;;;;;;;12.76;75.12;98578.47;4485687;32;20167;-72
2022/05/28 03:30:24;;;;;;;1.40;1.30;;;;;;;12.80;75.21;98581.59;4485397;32;20151;-72
2022/05/28 03:32:52;;;;;;;1.65;0.75;;;;;;;12.82;75.15;98579.62;4484943;31;20092;-72
2022/05/28 03:35:19;;;;;;;3.15;1.15;;;;;;;12.72;75.53;98576.31;4485230;31;20119;-72
2022/05/28 03:37:46;;;;;;;1.37;1.10;;;;;;;12.72;75.70;98574.50;4485577;31;20096;-72
2022/05/28 03:40:13;;;;;;;6.70;2.40;;;;;;;12.71;75.88;98569.38;4485489;31;20123;-72
2022/05/28 03:42:40;;;;;;;1.40;1.10;;;;;;;12.70;75.99;98576.47;4485606;31;20088;-72
2022/05/28 03:45:08;;;;;;;1.42;1.08;;;;;;;12.72;75.93;98576.31;4485487;31;20101;-72
2022/05/28 03:47:35;;;;;;;2.53;1.10;;;;;;;12.76;75.78;98585.50;4485373;31;20401;-72
2022/05/28 03:50:03;;;;;;;1.50;1.20;;;;;;;12.81;75.45;98588.50;4484017;32;20100;-72
2022/05/28 03:52:30;;;;;;;1.80;1.10;;;;;;;12.77;75.48;98595.88;4484043;32;20093;-72
2022/05/28 03:54:57;;;;;;;2.05;1.10;;;;;;;12.83;75.45;98599.69;4485527;31;20084;-72
2022/05/28 03:57:30;;;;;;;2.17;1.10;;;;;;;12.87;75.55;98590.50;4485420;31;20478;-72
2022/05/28 03:59:58;;;;;;;6.03;1.40;;;;;;;12.86;75.54;98578.34;4485498;31;20167;-72
2022/05/28 04:02:25;;;;;;;1.40;1.15;;;;;;;12.90;75.63;98579.69;4485231;31;20101;-72
2022/05/28 04:04:53;;;;;;;2.35;1.20;;;;;;;12.95;75.23;98577.41;4485276;32;20111;-72
2022/05/28 04:07:20;;;;;;;1.33;0.90;;;;;;;12.95;75.41;98572.12;4485522;31;20100;-72
2022/05/28 04:09:47;;;;;;;1.20;0.90;;;;;;;13.04;75.04;98574.81;4484119;32;20092;-72
2022/05/28 04:12:15;;;;;;;3.28;1.05;;;;;;;13.03;75.18;98578.44;4485324;32;20104;-72
2022/05/28 04:14:43;;;;;;;2.70;1.17;;;;;;;13.08;75.14;98589.28;4485493;31;20160;-72
2022/05/28 04:17:11;;;;;;;1.55;1.20;;;;;;;13.09;75.22;98594.38;4485485;31;20114;-72
2022/05/28 04:19:39;;;;;;;3.83;1.25;;;;;;;13.11;74.96;98596.84;4485524;31;20088;-72
2022/05/28 04:22:06;;;;;;;2.97;1.05;;;;;;;13.09;75.39;98589.13;4485356;31;20449;-72
2022/05/28 04:24:33;;;;;;;2.12;1.10;;;;;;;13.16;75.15;98577.97;4485332;31;20097;-72
2022/05/28 04:27:01;;;;;;;1.50;1.05;;;;;;;13.09;75.58;98578.59;4485544;31;20100;-72
2022/05/28 04:29:28;;;;;;;2.40;1.40;;;;;;;13.14;75.31;98578.97;4484986;31;20626;-72
2022/05/28 04:31:55;;;;;;;2.30;1.30;;;;;;;13.21;75.20;98584.41;4485393;31;20164;-72
2022/05/28 04:34:22;;;;;;;1.95;1.10;;;;;;;13.20;75.09;98580.16;4484919;32;20620;-72
2022/05/28 04:36:49;;;;;;;1.50;1.08;;;;;;;13.21;75.15;98578.34;4485187;31;20636;-72
2022/05/28 04:39:16;;;;;;;3.12;1.20;;;;;;;13.20;75.64;98574.91;4485094;31;20096;-72
2022/05/28 04:41:44;;;;;;;4.40;1.20;;;;;;;13.19;74.70;98586.38;4485110;31;20457;-72
2022/05/28 04:44:11;;;;;;;3.17;1.37;;;;;;;13.26;74.52;98586.56;4485059;31;20081;-72
2022/05/28 04:46:38;;;;;;;5.15;1.20;;;;;;;13.21;74.56;98592.31;4485260;31;20418;-72
2022/05/28 04:49:06;;;;;;;3.87;1.40;;;;;;;13.23;74.88;98594.78;4485101;32;20123;-72
2022/05/28 04:51:33;;;;;;;6.22;1.40;;;;;;;13.31;74.76;98593.00;4484928;32;20092;-72
2022/05/28 04:54:00;;;;;;;3.05;1.02;;;;;;;13.31;74.43;98592.19;4484837;31;20478;-72
2022/05/28 04:56:28;;;;;;;1.75;1.30;;;;;;;13.26;74.44;98599.72;4484964;32;20076;-72
2022/05/28 04:58:56;;;;;;;2.50;1.40;;;;;;;13.30;74.78;98591.34;4485025;31;20121;-72
2022/05/28 05:01:24;;;;;;;2.80;1.23;;;;;;;13.32;74.43;98596.44;4485118;31;20088;-72
2022/05/28 05:03:51;;;;;;;2.30;1.25;;;;;;;13.39;74.67;98604.59;4484706;31;20131;-73
2022/05/28 05:06:18;;;;;;;2.25;1.20;;;;;;;13.52;74.16;98612.84;4484864;32;20084;-73
2022/05/28 05:08:46;;;;;;;6.30;1.33;;;;;;;13.56;73.89;98618.62;4484882;31;20151;-72
2022/05/28 05:11:14;;;;;;;2.95;1.20;;;;;;;13.64;73.86;98618.62;4485018;31;20437;-72
2022/05/28 05:13:41;;;;;;;1.90;1.10;;;;;;;13.66;73.05;98611.41;4485043;31;20130;-72
2022/05/28 05:16:14;;;;;;;1.30;1.00;;;;;;;13.68;73.28;98598.09;4484721;32;20114;-72
2022/05/28 05:18:43;;;;;;;2.50;1.73;;;;;;;13.70;72.85;98596.09;4485198;31;20084;-72
2022/05/28 05:21:13;;;;;;;2.92;1.00;;;;;;;13.60;73.52;98591.81;4484665;32;20092;-72
2022/05/28 05:23:42;;;;;;;2.92;1.23;;;;;;;13.69;73.21;98597.94;4484927;31;20393;-72
2022/05/28 05:26:14;;;;;;;1.48;1.20;;;;;;;13.70;72.96;98604.84;4484534;31;20119;-72
2022/05/28 05:28:42;;;;;;;2.15;1.48;;;;;;;13.72;72.45;98602.88;4484621;31;20119;-72
2022/05/28 05:31:12;;;;;;;2.30;1.30;;;;;;;13.67;73.17;98602.50;4484402;31;20104;-72
2022/05/28 05:33:40;;;;;;;2.45;1.17;;;;;;;13.76;72.79;98600.72;4484215;31;20127;-72
2022/05/28 05:36:07;;;;;;;2.10;1.30;;;;;;;13.76;72.41;98609.47;4484482;31;20091;-72
2022/05/28 05:38:35;;;;;;;4.28;1.20;;;;;;;13.81;72.27;98607.16;4484469;31;20116;-72
2022/05/28 05:41:02;;;;;;;1.45;1.20;;;;;;;13.93;71.84;98612.94;4484479;31;20115;-72
2022/05/28 05:43:29;;;;;;;5.25;1.40;;;;;;;13.97;71.87;98619.53;4484511;31;20120;-72
2022/05/28 05:45:59;;;;;;;3.97;1.30;;;;;;;13.99;71.62;98617.56;4484211;31;20442;-72
2022/05/28 05:48:27;;;;;;;2.65;1.33;;;;;;;14.16;72.44;98623.66;4484426;31;20505;-72
2022/05/28 05:50:55;;;;;;;4.93;1.20;;;;;;;14.17;72.19;98621.84;4484042;31;20149;-72
2022/05/28 05:53:22;;;;;;;2.75;1.35;;;;;;;14.33;71.75;98618.41;4484253;31;20538;-72
2022/05/28 05:55:49;;;;;;;5.62;1.60;;;;;;;14.40;70.85;98605.38;4484016;31;20088;-72
2022/05/28 05:58:16;;;;;;;2.03;1.25;;;;;;;14.43;70.77;98600.63;4484787;32;20123;-72
2022/05/28 06:00:43;;;;;;;2.25;1.27;;;;;;;14.63;70.04;98603.75;4486138;31;20116;-72
2022/05/28 06:03:18;;;;;;;1.48;1.33;;;;;;;14.84;68.90;98607.69;4486300;31;20386;-73
2022/05/28 06:05:45;;;;;;;;;;;;;;;15.01;67.49;98611.91;4485370;32;20080;-72
2022/05/28 06:08:15;;;;;;;4.78;1.37;;;;;;;15.18;67.30;98607.38;4486539;31;20006;-72
2022/05/28 06:10:43;;;;;;;3.37;1.27;;;;;;;15.07;64.36;98592.75;4485965;31;20119;-72
2022/05/28 06:13:10;;;;;;;2.35;0.98;;;;;;;15.33;65.04;98598.75;4486287;31;20097;-72
2022/05/28 06:15:37;;;;;;;1.65;1.20;;;;;;;15.49;64.73;98613.69;4485970;32;20096;-72
2022/05/28 06:18:05;;;;;;;2.65;1.37;;;;;;;15.53;63.69;98615.81;4486047;31;20123;-72
2022/05/28 06:20:32;;;;;;;4.12;1.70;;;;;;;16.01;62.09;98614.91;4486181;31;20100;-72
2022/05/28 06:22:59;;;;;;;2.60;1.37;;;;;;;16.28;60.11;98608.28;4485981;31;20123;-72
2022/05/28 06:25:26;;;;;;;1.50;1.00;;;;;;;16.41;58.29;98592.63;4485882;31;20114;-72
2022/05/28 06:27:54;;;;;;;2.45;1.12;;;;;;;16.46;59.77;98595.56;4486072;31;20146;-73
2022/05/28 06:30:22;;;;;;;2.67;1.00;;;;;;;16.68;59.24;98603.59;4485681;31;20131;-73
2022/05/28 06:32:51;;;;;;;4.70;1.35;;;;;;;16.53;58.99;98608.06;4485999;31;20377;-72
2022/05/28 06:35:18;;;;;;;2.67;1.42;;;;;;;16.52;60.38;98601.97;4485868;32;20096;-73
2022/05/28 06:37:47;;;;;;;3.20;1.23;;;;;;;16.43;60.28;98605.69;4485838;32;20127;-73
2022/05/28 06:40:14;;;;;;;3.03;1.23;;;;;;;16.45;61.25;98612.41;4486070;31;20097;-73
2022/05/28 06:42:41;;;;;;;3.60;1.35;;;;;;;16.67;61.42;98608.09;4485737;31;20119;-73
2022/05/28 06:45:14;;;;;;;1.55;0.98;;;;;;;16.95;60.39;98610.12;4485860;32;20100;-72
2022/05/28 06:47:45;;;;;;;4.15;1.60;;;;;;;16.91;59.96;98605.41;4484458;32;20560;-73
2022/05/28 06:53:00;;;;;;;2.80;1.50;;;;;;;16.58;59.45;98605.69;4485694;31;20089;-73
2022/05/28 06:55:28;;;;;;;1.98;1.12;;;;;;;16.66;59.29;98605.63;4485931;31;20108;-72
2022/05/28 06:57:55;;;;;;;2.17;1.30;;;;;;;16.76;59.62;98615.94;4485684;31;20119;-72
2022/05/28 07:00:22;;;;;;;4.45;1.37;;;;;;;16.61;58.89;98619.38;4485862;31;20093;-72
2022/05/28 07:02:49;;;;;;;5.28;1.45;;;;;;;16.90;57.17;98627.59;4485549;32;20123;-73
2022/05/28 07:05:16;;;;;;;5.80;1.45;;;;;;;16.78;58.24;98625.34;4485578;31;20156;-73
2022/05/28 07:07:43;;;;;;;3.15;1.25;;;;;;;16.71;58.30;98627.06;4485153;32;20596;-73
2022/05/28 07:10:11;;;;;;;2.75;1.40;;;;;;;16.96;58.39;98632.97;4485614;31;20131;-72
2022/05/28 07:12:38;;;;;;;2.60;1.25;;;;;;;16.98;58.18;98636.25;4485536;31;20084;-72
2022/05/28 07:15:06;;;;;;;3.35;1.70;;;;;;;17.06;58.42;98637.97;4485737;31;20495;-73
2022/05/28 07:17:34;;;;;;;1.73;1.17;;;;;;;17.03;58.87;98646.28;4485640;31;20100;-73
2022/05/28 07:20:01;;;;;;;2.60;1.35;;;;;;;16.77;58.93;98639.56;4485815;31;20101;-73
2022/05/28 07:22:29;;;;;;;1.90;1.40;;;;;;;16.58;58.98;98642.72;4485923;31;20172;-72
2022/05/28 07:24:56;;;;;;;2.90;1.30;;;;;;;16.64;59.07;98647.31;4484475;32;20563;-73
2022/05/28 07:27:25;;;;;;;3.37;1.33;;;;;;;16.71;60.36;98642.13;4485454;31;20093;-73
2022/05/28 07:29:55;;;;;;;3.28;1.42;;;;;;;16.79;58.85;98644.66;4485707;31;20100;-73
2022/05/28 07:32:25;;;;;;;4.10;1.50;;;;;;;16.89;57.74;98649.75;4485123;31;20092;-72
2022/05/28 07:34:52;;;;;;;3.95;1.60;;;;;;;16.95;56.00;98655.12;4485900;31;20088;-72
2022/05/28 07:37:19;;;;;;;1.98;1.50;;;;;;;16.90;57.50;98657.50;4485483;31;20601;-73
2022/05/28 07:39:46;;;;;;;1.85;1.10;;;;;;;17.04;56.48;98655.88;4485735;31;20134;-73
2022/05/28 07:42:14;;;;;;;4.03;1.52;;;;;;;17.25;57.79;98667.56;4485452;31;20092;-73
2022/05/28 07:44:41;;;;;;;4.05;1.08;;;;;;;17.40;53.94;98655.16;4485573;31;20560;-73
2022/05/28 07:47:08;;;;;;;3.95;1.30;;;;;;;17.66;52.96;98665.25;4485410;32;20143;-72
2022/05/28 07:49:37;;;;;;;3.58;1.12;;;;;;;17.66;53.38;98656.47;4485580;31;20153;-72
2022/05/28 07:52:05;;;;;;;2.55;1.25;;;;;;;17.80;53.62;98665.41;4485426;31;20115;-73
2022/05/28 07:54:32;;;;;;;2.80;1.42;;;;;;;17.87;52.10;98666.31;4485316;31;20091;-73
2022/05/28 07:57:00;;;;;;;2.45;1.20;;;;;;;17.90;51.88;98671.25;4485189;31;20096;-73
2022/05/28 07:59:27;;;;;;;3.60;1.42;;;;;;;17.96;50.97;98670.50;4485519;31;20612;-73
2022/05/28 08:01:54;;;;;;;3.65;1.05;;;;;;;17.96;50.91;98665.22;4485339;31;20123;-73
2022/05/28 08:04:22;;;;;;;2.58;1.20;;;;;;;17.76;50.03;98667.63;4485112;31;20131;-73
2022/05/28 08:06:49;;;;;;;2.78;1.10;;;;;;;17.82;49.42;98661.56;4485439;31;20205;-73
2022/05/28 08:09:16;;;;;;;2.35;1.40;;;;;;;17.83;50.42;98665.84;4485250;31;20092;-73
2022/05/28 08:11:44;;;;;;;3.22;0.90;;;;;;;17.78;50.58;98660.28;4485405;31;20108;-73
2022/05/28 08:14:11;;;;;;;4.47;1.05;;;;;;;18.04;50.50;98657.13;4485364;31;20137;-73
2022/05/28 08:16:38;;;;;;;3.22;1.60;;;;;;;17.63;50.55;98649.72;4485242;31;20104;-73
2022/05/28 08:19:06;;;;;;;3.00;1.40;;;;;;;17.76;51.49;98654.38;4485152;31;20705;-73
2022/05/28 08:24:19;;;;;;;3.67;1.37;;;;;;;18.20;50.83;98671.19;4485342;31;20083;-73
2022/05/28 08:26:46;;;;;;;2.28;1.10;;;;;;;18.53;50.33;98674.16;4485148;31;20084;-73
2022/05/28 08:29:13;;;;;;;2.45;1.10;;;;;;;18.52;50.33;98669.84;4485503;31;20096;-73
2022/05/28 08:31:40;;;;;;;4.22;1.20;;;;;;;18.48;46.68;98673.88;4484957;32;20165;-73
2022/05/28 08:34:07;;;;;;;3.25;1.27;;;;;;;18.58;45.99;98679.69;4484936;32;20093;-72
2022/05/28 08:36:35;;;;;;;6.78;1.83;;;;;;;18.96;43.69;98670.62;4485104;31;20088;-73
2022/05/28 08:39:02;;;;;;;3.92;1.10;;;;;;;19.14;42.21;98672.78;4484023;32;20126;-73
2022/05/28 08:41:44;;;;;;;2.58;1.33;;;;;;;19.10;43.49;98658.25;4485349;31;20115;-73
2022/05/28 08:44:19;;;;;;;1.42;1.02;;;;;;;19.25;44.25;98666.91;4483787;32;20114;-73
2022/05/28 08:46:52;;;;;;;3.87;1.50;;;;;;;19.36;44.18;98670.03;4483696;32;20517;-73
2022/05/28 08:49:23;;;;;;;2.15;0.95;;;;;;;19.24;43.50;98669.75;4484098;32;20126;-73
2022/05/28 08:51:54;;;;;;;2.78;1.25;;;;;;;19.02;46.02;98663.72;4484994;31;20107;-73
2022/05/28 08:54:38;;;;;;;2.67;1.30;;;;;;;18.76;46.27;98665.16;4484956;32;20136;-73
2022/05/28 08:57:17;;;;;;;4.05;1.10;;;;;;;18.52;47.37;98661.88;4483830;32;20441;-72
2022/05/28 08:59:56;;;;;;;3.50;1.48;;;;;;;18.64;46.28;98659.53;4483643;32;20501;-73
2022/05/28 09:02:40;;;;;;;4.43;1.60;;;;;;;18.89;45.82;98667.09;4484673;31;20085;-73
2022/05/28 09:05:52;;;;;;;4.72;1.37;;;;;;;19.16;44.14;98676.06;4484998;31;20600;-73
2022/05/28 09:08:32;;;;;;;3.62;1.40;;;;;;;18.70;43.90;98671.19;4420271;32;20110;-73
2022/05/28 09:11:04;;;;;;;4.00;1.23;;;;;;;18.20;45.54;98655.28;4420090;32;20156;-73
2022/05/28 09:13:51;;;;;;;5.32;1.30;;;;;;;18.45;45.04;98642.44;4407538;32;20117;-73
2022/05/28 09:16:38;;;;;;;3.03;1.40;;;;;;;18.66;44.08;98643.41;4420240;32;20118;-73
2022/05/28 09:19:09;;;;;;;2.78;1.50;;;;;;;18.95;44.71;98640.56;4407546;32;20132;-73
2022/05/28 09:21:38;;;;;;;2.55;1.48;;;;;;;18.96;44.51;98646.72;4407963;32;20156;-73
2022/05/28 09:24:29;;;;;;;5.15;1.27;;;;;;;18.42;45.42;98658.72;4419991;32;20462;-73
2022/05/28 09:26:56;;;;;;;3.28;1.12;;;;;;;18.30;46.04;98654.94;4420118;32;20456;-73
2022/05/28 09:29:40;;;;;;;2.70;1.30;;;;;;;18.08;46.76;98658.41;4420204;32;20094;-73
2022/05/28 09:32:11;;;;;;;3.03;1.40;;;;;;;18.20;47.79;98649.97;4418987;32;20109;-73
2022/05/28 09:35:03;;;;;;;4.37;1.92;;;;;;;18.21;47.69;98660.37;4420174;32;20390;-73
2022/05/28 09:37:56;;;;;;;5.28;1.40;;;;;;;18.30;47.55;98660.25;4420466;32;20165;-73
2022/05/28 09:40:51;;;;;;;5.50;2.50;;;;;;;18.32;47.92;98656.41;4484472;31;20093;-73
2022/05/28 09:43:24;;;;;;;9.35;1.58;;;;;;;18.37;47.96;98661.13;4484676;31;20096;-73
2022/05/28 09:46:10;;;;;;;2.25;1.50;;;;;;;18.38;48.36;98668.06;4484444;31;20105;-73
2022/05/28 09:48:42;;;;;;;5.05;1.50;;;;;;;18.31;48.07;98662.72;4484316;31;20100;-73
2022/05/28 09:51:23;;;;;;;4.95;1.65;;;;;;;18.20;49.35;98663.22;4483098;32;20504;-73
2022/05/28 09:54:18;;;;;;;2.22;1.27;;;;;;;18.00;49.38;98674.44;4484133;32;20096;-73
2022/05/28 09:56:55;;;;;;;2.62;1.87;;;;;;;18.14;49.80;98672.75;4484519;32;20136;-73
2022/05/28 09:59:34;;;;;;;3.87;1.60;;;;;;;18.50;48.91;98669.22;4483990;31;20084;-73
2022/05/28 10:02:17;;;;;;;6.00;2.03;;;;;;;18.94;48.31;98667.31;4484094;31;20100;-72
2022/05/28 10:04:55;;;;;;;4.18;2.15;;;;;;;19.10;47.02;98656.41;4484193;31;20101;-73
2022/05/28 10:07:34;;;;;;;6.53;2.17;;;;;;;19.63;45.79;98658.50;4484126;31;20111;-73
2022/05/28 10:10:32;;;;;;;7.65;1.95;;;;;;;19.73;45.39;98663.47;4482750;32;20068;-73
2022/05/28 10:13:15;;;;;;;4.20;1.80;;;;;;;19.78;45.75;98653.06;4422093;32;20132;-73
2022/05/28 10:15:46;;;;;;;3.35;1.60;;;;;;;19.97;45.47;98653.31;4434463;32;20193;-73
2022/05/28 10:18:16;;;;;;;3.42;1.40;;;;;;;20.11;44.31;98652.34;4434689;32;20594;-73
2022/05/28 10:20:44;;;;;;;4.40;1.48;;;;;;;20.16;44.70;98649.91;4434971;32;20101;-73
2022/05/28 10:23:14;;;;;;;3.15;1.45;;;;;;;19.99;44.83;98640.66;4421854;32;20180;-73
2022/05/28 10:25:48;;;;;;;2.08;1.45;;;;;;;20.39;44.05;98638.06;4421873;32;20144;-73
2022/05/28 10:28:30;;;;;;;5.40;1.67;;;;;;;20.55;45.11;98636.84;4434732;32;20500;-73
2022/05/28 10:30:57;;;;;;;3.80;1.50;;;;;;;20.83;44.35;98614.53;4417162;32;20117;-73
2022/05/28 10:33:29;;;;;;;2.28;1.35;;;;;;;20.70;45.55;98629.50;4406771;32;20110;-73
2022/05/28 10:36:10;;;;;;;4.68;1.67;;;;;;;20.08;45.76;98641.31;4419355;32;20106;-73
2022/05/28 10:38:39;;;;;;;5.37;1.77;;;;;;;19.99;45.08;98644.13;4419208;32;20090;-73
2022/05/28 10:41:26;;;;;;;5.10;1.48;;;;;;;20.33;45.58;98634.38;4406820;32;20139;-73
2022/05/28 10:43:54;;;;;;;2.47;1.30;;;;;;;20.94;40.46;98624.56;4420923;32;20098;-73
2022/05/28 10:46:31;;;;;;;4.32;1.20;;;;;;;20.60;39.85;98631.72;4421381;32;20117;-73
2022/05/28 10:49:07;;;;;;;5.20;1.52;;;;;;;20.60;38.88;98615.75;4413182;32;20094;-73
2022/05/28 10:51:34;;;;;;;4.15;1.40;;;;;;;20.95;43.74;98626.16;4485827;31;20103;-73
2022/05/28 10:54:20;;;;;;;5.15;1.30;;;;;;;21.09;41.69;98617.12;4485848;31;20155;-73
2022/05/28 10:56:50;;;;;;;4.07;1.30;;;;;;;20.87;38.46;98613.09;4486142;31;20118;-73
2022/05/28 10:59:30;;;;;;;2.97;1.10;;;;;;;20.67;38.51;98607.78;4485546;32;20115;-73
2022/05/28 11:02:08;;;;;;;6.62;1.40;;;;;;;20.55;37.59;98604.91;4485769;31;20475;-73
2022/05/28 11:05:27;;;;;;;4.62;1.27;;;;;;;20.36;38.61;98611.84;4485543;32;20116;-73
2022/05/28 11:08:00;;;;;;;5.57;1.52;;;;;;;19.89;40.10;98609.13;4421270;32;20124;-73
2022/05/28 11:10:34;;;;;;;2.33;1.08;;;;;;;19.84;40.28;98620.38;4409026;32;20094;-73
2022/05/28 11:13:22;;;;;;;4.95;1.20;;;;;;;19.94;38.84;98614.69;4421167;32;20114;-73
2022/05/28 11:15:59;;;;;;;2.10;1.12;;;;;;;19.90;38.79;98609.97;4421153;32;20112;-73
2022/05/28 11:18:48;;;;;;;5.20;1.27;;;;;;;19.94;39.48;98621.81;4421384;32;20201;-73
2022/05/28 11:21:41;;;;;;;1.67;0.93;;;;;;;19.91;40.04;98609.78;4421076;32;20145;-73
2022/05/28 11:24:31;;;;;;;5.37;1.45;;;;;;;20.46;38.14;98606.13;4420840;32;20106;-73
2022/05/28 11:27:31;;;;;;;3.60;1.20;;;;;;;20.22;38.02;98603.06;4408487;32;20189;-73
2022/05/28 11:30:08;;;;;;;2.72;1.30;;;;;;;20.62;37.40;98597.75;4420973;32;20581;-73
2022/05/28 11:32:46;;;;;;;4.50;1.30;;;;;;;20.97;38.58;98596.66;4420676;32;20813;-73
2022/05/28 11:35:27;;;;;;;3.90;1.30;;;;;;;21.29;38.26;98586.94;4408528;32;20089;-73
2022/05/28 11:37:59;;;;;;;3.33;1.33;;;;;;;21.37;37.80;98584.03;4421003;32;20568;-73
2022/05/28 11:40:29;;;;;;;1.45;1.00;;;;;;;20.97;38.01;98586.00;4408525;32;20160;-73
2022/05/28 11:43:09;;;;;;;8.40;1.27;;;;;;;20.48;37.06;98598.75;4423828;32;20132;-73
2022/05/28 11:45:44;;;;;;;3.50;1.08;;;;;;;20.29;37.96;98590.59;4484571;32;20089;-73
2022/05/28 11:48:18;;;;;;;4.85;1.73;;;;;;;19.83;38.96;98594.00;4484582;32;20143;-73
2022/05/28 11:51:30;;;;;;;6.93;1.30;;;;;;;19.68;38.85;98581.69;4485814;31;20111;-73
2022/05/28 11:54:05;;;;;;;3.90;1.30;;;;;;;19.88;38.68;98588.91;4485067;32;20112;-73
2022/05/28 11:56:32;;;;;;;4.87;1.10;;;;;;;19.83;39.20;98581.53;4484489;32;20545;-73
2022/05/28 11:59:12;;;;;;;3.03;1.35;;;;;;;19.72;39.26;98575.97;4483046;31;79760;-73
2022/05/28 12:02:12;;;;;;;2.75;1.45;;;;;;;19.66;40.37;98575.72;4483992;32;20123;-73